Terminal Aerodrome Forecast
Issued by NWS

Home | Current Version | Previous Version | Text Only | Print | Product List | Glossary On
Versions: 1 2 3 4 5 6 7 8 9 10 11 12
000
FTUS42 KGSP 172320
TAFGMU
TAF
KGMU 172320Z 1800/1824 15003KT P6SM FEW250
     FM180900 21003KT P6SM SCT025 SCT120
     FM181100 22004KT P6SM BKN025
     FM181600 22009G17KT P6SM BKN025
     FM181900 22011G19KT P6SM BKN035=

USA.gov is the U.S. government's official web portal to all federal, state and local government web resources and services.